sensor_id;sensor_type;location;lat;lon;timestamp;temperature;humidity
22666;DHT22;11499;49.486;11.104;2023-04-27T00:01:14;5.40;90.40
22666;DHT22;11499;49.486;11.104;2023-04-27T00:03:40;5.40;90.70
22666;DHT22;11499;49.486;11.104;2023-04-27T00:06:07;5.40;90.90
22666;DHT22;11499;49.486;11.104;2023-04-27T00:08:34;5.40;90.90
22666;DHT22;11499;49.486;11.104;2023-04-27T00:10:59;5.40;91.00
22666;DHT22;11499;49.486;11.104;2023-04-27T00:13:25;5.40;90.60
22666;DHT22;11499;49.486;11.104;2023-04-27T00:15:51;5.40;90.70
22666;DHT22;11499;49.486;11.104;2023-04-27T00:18:16;5.40;90.90
22666;DHT22;11499;49.486;11.104;2023-04-27T00:20:42;5.50;90.80
22666;DHT22;11499;49.486;11.104;2023-04-27T00:25:58;5.50;90.70
22666;DHT22;11499;49.486;11.104;2023-04-27T00:28:23;5.60;90.90
22666;DHT22;11499;49.486;11.104;2023-04-27T00:30:49;5.60;91.00
22666;DHT22;11499;49.486;11.104;2023-04-27T00:33:16;5.60;91.10
22666;DHT22;11499;49.486;11.104;2023-04-27T00:35:41;5.60;90.90
22666;DHT22;11499;49.486;11.104;2023-04-27T00:38:07;5.70;91.00
22666;DHT22;11499;49.486;11.104;2023-04-27T00:40:32;5.70;90.50
22666;DHT22;11499;49.486;11.104;2023-04-27T00:42:58;5.70;90.60
22666;DHT22;11499;49.486;11.104;2023-04-27T00:45:23;5.70;90.90
22666;DHT22;11499;49.486;11.104;2023-04-27T00:47:49;5.70;91.20
22666;DHT22;11499;49.486;11.104;2023-04-27T00:53:07;5.70;91.40
22666;DHT22;11499;49.486;11.104;2023-04-27T00:55:32;5.70;91.20
22666;DHT22;11499;49.486;11.104;2023-04-27T00:57:58;5.80;90.80
22666;DHT22;11499;49.486;11.104;2023-04-27T01:00:23;5.80;90.10
22666;DHT22;11499;49.486;11.104;2023-04-27T01:02:49;5.70;90.10
22666;DHT22;11499;49.486;11.104;2023-04-27T01:05:16;5.70;90.70
22666;DHT22;11499;49.486;11.104;2023-04-27T01:07:41;5.70;91.40
22666;DHT22;11499;49.486;11.104;2023-04-27T01:10:07;5.60;90.90
22666;DHT22;11499;49.486;11.104;2023-04-27T01:12:33;5.60;90.70
22666;DHT22;11499;49.486;11.104;2023-04-27T01:14:59;5.60;90.30
22666;DHT22;11499;49.486;11.104;2023-04-27T01:19:59;5.50;90.10
22666;DHT22;11499;49.486;11.104;2023-04-27T01:22:26;5.50;90.30
22666;DHT22;11499;49.486;11.104;2023-04-27T01:24:52;5.40;90.40
22666;DHT22;11499;49.486;11.104;2023-04-27T01:27:18;5.40;90.50
22666;DHT22;11499;49.486;11.104;2023-04-27T01:29:43;5.40;90.60
22666;DHT22;11499;49.486;11.104;2023-04-27T01:32:09;5.40;90.80
22666;DHT22;11499;49.486;11.104;2023-04-27T01:34:34;5.40;90.90
22666;DHT22;11499;49.486;11.104;2023-04-27T01:37:00;5.40;91.00
22666;DHT22;11499;49.486;11.104;2023-04-27T01:39:25;5.40;91.10
22666;DHT22;11499;49.486;11.104;2023-04-27T01:41:51;5.30;91.30
22666;DHT22;11499;49.486;11.104;2023-04-27T01:44:17;5.30;91.40
22666;DHT22;11499;49.486;11.104;2023-04-27T01:48:15;5.30;91.50
22666;DHT22;11499;49.486;11.104;2023-04-27T01:50:41;5.20;91.70
22666;DHT22;11499;49.486;11.104;2023-04-27T01:53:06;5.20;91.90
22666;DHT22;11499;49.486;11.104;2023-04-27T01:55:32;5.10;91.90
22666;DHT22;11499;49.486;11.104;2023-04-27T01:57:57;5.00;91.80
22666;DHT22;11499;49.486;11.104;2023-04-27T02:00:23;5.00;91.90
22666;DHT22;11499;49.486;11.104;2023-04-27T02:02:48;5.00;91.90
22666;DHT22;11499;49.486;11.104;2023-04-27T02:05:18;5.10;91.90
22666;DHT22;11499;49.486;11.104;2023-04-27T02:07:44;5.10;91.70
22666;DHT22;11499;49.486;11.104;2023-04-27T02:10:10;5.10;91.50
22666;DHT22;11499;49.486;11.104;2023-04-27T02:14:14;5.20;91.50
22666;DHT22;11499;49.486;11.104;2023-04-27T02:16:39;5.20;91.60
22666;DHT22;11499;49.486;11.104;2023-04-27T02:19:05;5.30;91.80
22666;DHT22;11499;49.486;11.104;2023-04-27T02:21:31;5.20;91.90
22666;DHT22;11499;49.486;11.104;2023-04-27T02:23:57;5.30;91.80
22666;DHT22;11499;49.486;11.104;2023-04-27T02:26:22;5.30;91.90
22666;DHT22;11499;49.486;11.104;2023-04-27T02:28:54;5.30;91.80
22666;DHT22;11499;49.486;11.104;2023-04-27T02:31:20;5.30;91.80
22666;DHT22;11499;49.486;11.104;2023-04-27T02:33:46;5.30;91.90
22666;DHT22;11499;49.486;11.104;2023-04-27T02:36:12;5.30;91.90
22666;DHT22;11499;49.486;11.104;2023-04-27T02:41:59;5.20;91.80
22666;DHT22;11499;49.486;11.104;2023-04-27T02:44:25;5.20;91.90
22666;DHT22;11499;49.486;11.104;2023-04-27T02:46:51;5.20;92.00
22666;DHT22;11499;49.486;11.104;2023-04-27T02:49:17;5.20;92.00
22666;DHT22;11499;49.486;11.104;2023-04-27T02:51:42;5.20;92.20
22666;DHT22;11499;49.486;11.104;2023-04-27T02:54:08;5.20;92.70
22666;DHT22;11499;49.486;11.104;2023-04-27T02:56:33;5.10;92.70
22666;DHT22;11499;49.486;11.104;2023-04-27T02:58:59;4.90;93.00
22666;DHT22;11499;49.486;11.104;2023-04-27T03:01:24;4.80;93.10
22666;DHT22;11499;49.486;11.104;2023-04-27T03:03:50;4.60;93.10
22666;DHT22;11499;49.486;11.104;2023-04-27T03:08:57;4.50;93.20
22666;DHT22;11499;49.486;11.104;2023-04-27T03:11:23;4.60;93.40
22666;DHT22;11499;49.486;11.104;2023-04-27T03:13:48;4.50;93.30
22666;DHT22;11499;49.486;11.104;2023-04-27T03:16:14;4.50;93.40
22666;DHT22;11499;49.486;11.104;2023-04-27T03:18:39;4.40;93.30
22666;DHT22;11499;49.486;11.104;2023-04-27T03:21:07;4.40;93.10
22666;DHT22;11499;49.486;11.104;2023-04-27T03:23:32;4.50;93.10
22666;DHT22;11499;49.486;11.104;2023-04-27T03:25:58;4.50;92.80
22666;DHT22;11499;49.486;11.104;2023-04-27T03:28:23;4.50;92.90
22666;DHT22;11499;49.486;11.104;2023-04-27T03:30:49;4.60;92.70
22666;DHT22;11499;49.486;11.104;2023-04-27T03:36:24;4.70;93.00
22666;DHT22;11499;49.486;11.104;2023-04-27T03:38:51;4.80;93.10
22666;DHT22;11499;49.486;11.104;2023-04-27T03:41:16;4.90;92.70
22666;DHT22;11499;49.486;11.104;2023-04-27T03:43:42;5.00;92.20
22666;DHT22;11499;49.486;11.104;2023-04-27T03:46:07;4.90;92.00
22666;DHT22;11499;49.486;11.104;2023-04-27T03:48:33;5.00;92.00
22666;DHT22;11499;49.486;11.104;2023-04-27T03:51:02;5.00;92.10
22666;DHT22;11499;49.486;11.104;2023-04-27T03:53:27;5.10;92.20
22666;DHT22;11499;49.486;11.104;2023-04-27T03:55:53;5.20;92.40
22666;DHT22;11499;49.486;11.104;2023-04-27T03:58:18;5.30;92.40
22666;DHT22;11499;49.486;11.104;2023-04-27T04:02:36;5.30;92.10
22666;DHT22;11499;49.486;11.104;2023-04-27T04:05:02;5.40;92.10
22666;DHT22;11499;49.486;11.104;2023-04-27T04:07:28;5.40;91.90
22666;DHT22;11499;49.486;11.104;2023-04-27T04:09:53;5.30;91.60
22666;DHT22;11499;49.486;11.104;2023-04-27T04:12:18;5.30;91.90
22666;DHT22;11499;49.486;11.104;2023-04-27T04:14:44;5.20;91.60
22666;DHT22;11499;49.486;11.104;2023-04-27T04:17:13;5.40;91.80
22666;DHT22;11499;49.486;11.104;2023-04-27T04:19:38;5.40;91.70
22666;DHT22;11499;49.486;11.104;2023-04-27T04:22:04;5.50;91.60
22666;DHT22;11499;49.486;11.104;2023-04-27T04:24:29;5.50;91.50
22666;DHT22;11499;49.486;11.104;2023-04-27T04:28:52;5.60;91.60
22666;DHT22;11499;49.486;11.104;2023-04-27T04:31:18;5.70;91.60
22666;DHT22;11499;49.486;11.104;2023-04-27T04:33:45;5.80;91.60
22666;DHT22;11499;49.486;11.104;2023-04-27T04:36:14;5.90;91.30
22666;DHT22;11499;49.486;11.104;2023-04-27T04:38:39;5.90;91.10
22666;DHT22;11499;49.486;11.104;2023-04-27T04:41:05;5.80;90.90
22666;DHT22;11499;49.486;11.104;2023-04-27T04:43:31;5.90;91.00
22666;DHT22;11499;49.486;11.104;2023-04-27T04:45:57;6.00;90.80
22666;DHT22;11499;49.486;11.104;2023-04-27T04:48:22;6.10;90.70
22666;DHT22;11499;49.486;11.104;2023-04-27T04:50:48;6.20;90.70
22666;DHT22;11499;49.486;11.104;2023-04-27T04:55:06;6.30;90.60
22666;DHT22;11499;49.486;11.104;2023-04-27T04:57:31;6.30;90.40
22666;DHT22;11499;49.486;11.104;2023-04-27T04:59:57;6.40;90.40
22666;DHT22;11499;49.486;11.104;2023-04-27T05:02:23;6.50;90.30
22666;DHT22;11499;49.486;11.104;2023-04-27T05:04:48;6.50;90.10
22666;DHT22;11499;49.486;11.104;2023-04-27T05:07:16;6.50;90.00
22666;DHT22;11499;49.486;11.104;2023-04-27T05:09:42;6.70;90.10
22666;DHT22;11499;49.486;11.104;2023-04-27T05:12:07;6.80;89.60
22666;DHT22;11499;49.486;11.104;2023-04-27T05:14:33;6.80;89.30
22666;DHT22;11499;49.486;11.104;2023-04-27T05:16:59;6.80;88.70
22666;DHT22;11499;49.486;11.104;2023-04-27T05:19:27;6.80;88.20
22666;DHT22;11499;49.486;11.104;2023-04-27T05:21:53;6.90;88.60
22666;DHT22;11499;49.486;11.104;2023-04-27T05:25:51;6.80;87.90
22666;DHT22;11499;49.486;11.104;2023-04-27T05:28:17;6.80;87.70
22666;DHT22;11499;49.486;11.104;2023-04-27T05:30:42;7.00;87.50
22666;DHT22;11499;49.486;11.104;2023-04-27T05:33:08;7.00;87.50
22666;DHT22;11499;49.486;11.104;2023-04-27T05:35:33;6.90;87.60
22666;DHT22;11499;49.486;11.104;2023-04-27T05:37:59;6.90;89.00
22666;DHT22;11499;49.486;11.104;2023-04-27T05:40:25;6.90;87.20
22666;DHT22;11499;49.486;11.104;2023-04-27T05:42:51;7.00;87.50
22666;DHT22;11499;49.486;11.104;2023-04-27T05:45:16;7.30;86.90
22666;DHT22;11499;49.486;11.104;2023-04-27T05:50:25;7.50;85.80
22666;DHT22;11499;49.486;11.104;2023-04-27T05:52:51;7.50;85.10
22666;DHT22;11499;49.486;11.104;2023-04-27T05:55:16;7.50;85.10
22666;DHT22;11499;49.486;11.104;2023-04-27T05:57:42;7.80;85.00
22666;DHT22;11499;49.486;11.104;2023-04-27T06:00:08;8.20;84.60
22666;DHT22;11499;49.486;11.104;2023-04-27T06:02:35;8.00;83.60
22666;DHT22;11499;49.486;11.104;2023-04-27T06:05:00;8.00;84.10
22666;DHT22;11499;49.486;11.104;2023-04-27T06:07:26;8.10;83.10
22666;DHT22;11499;49.486;11.104;2023-04-27T06:09:51;8.20;83.30
22666;DHT22;11499;49.486;11.104;2023-04-27T06:12:17;8.40;82.20
22666;DHT22;11499;49.486;11.104;2023-04-27T06:17:22;8.80;81.80
22666;DHT22;11499;49.486;11.104;2023-04-27T06:19:48;9.40;78.80
22666;DHT22;11499;49.486;11.104;2023-04-27T06:22:13;9.80;78.60
22666;DHT22;11499;49.486;11.104;2023-04-27T06:24:39;9.90;77.90
22666;DHT22;11499;49.486;11.104;2023-04-27T06:27:05;10.40;76.60
22666;DHT22;11499;49.486;11.104;2023-04-27T06:29:30;11.00;75.40
22666;DHT22;11499;49.486;11.104;2023-04-27T06:31:56;11.50;73.10
22666;DHT22;11499;49.486;11.104;2023-04-27T06:34:21;11.30;72.40
22666;DHT22;11499;49.486;11.104;2023-04-27T06:36:47;11.50;71.70
22666;DHT22;11499;49.486;11.104;2023-04-27T06:39:12;11.80;71.00
22666;DHT22;11499;49.486;11.104;2023-04-27T06:43:41;11.90;70.00
22666;DHT22;11499;49.486;11.104;2023-04-27T06:46:06;12.30;68.60
22666;DHT22;11499;49.486;11.104;2023-04-27T06:48:31;12.50;67.50
22666;DHT22;11499;49.486;11.104;2023-04-27T06:50:58;12.60;67.30
22666;DHT22;11499;49.486;11.104;2023-04-27T06:53:23;12.40;66.10
22666;DHT22;11499;49.486;11.104;2023-04-27T06:55:48;12.40;66.30
22666;DHT22;11499;49.486;11.104;2023-04-27T06:58:15;12.30;64.10
22666;DHT22;11499;49.486;11.104;2023-04-27T07:00:40;12.10;64.40
22666;DHT22;11499;49.486;11.104;2023-04-27T07:03:06;12.20;64.90
22666;DHT22;11499;49.486;11.104;2023-04-27T07:05:32;12.30;63.90
22666;DHT22;11499;49.486;11.104;2023-04-27T07:10:26;12.50;63.40
22666;DHT22;11499;49.486;11.104;2023-04-27T07:12:52;12.70;63.30
22666;DHT22;11499;49.486;11.104;2023-04-27T07:15:17;13.10;62.70
22666;DHT22;11499;49.486;11.104;2023-04-27T07:17:43;13.10;61.60
22666;DHT22;11499;49.486;11.104;2023-04-27T07:20:08;12.90;60.60
22666;DHT22;11499;49.486;11.104;2023-04-27T07:22:34;12.80;60.90
22666;DHT22;11499;49.486;11.104;2023-04-27T07:24:59;13.30;59.70
22666;DHT22;11499;49.486;11.104;2023-04-27T07:27:25;13.70;58.50
22666;DHT22;11499;49.486;11.104;2023-04-27T07:29:51;13.80;57.80
22666;DHT22;11499;49.486;11.104;2023-04-27T07:32:16;14.20;57.70
22666;DHT22;11499;49.486;11.104;2023-04-27T07:36:33;13.60;57.30
22666;DHT22;11499;49.486;11.104;2023-04-27T07:38:59;14.00;56.20
22666;DHT22;11499;49.486;11.104;2023-04-27T07:41:25;14.40;55.70
22666;DHT22;11499;49.486;11.104;2023-04-27T07:43:52;14.80;55.00
22666;DHT22;11499;49.486;11.104;2023-04-27T07:46:17;14.70;54.50
22666;DHT22;11499;49.486;11.104;2023-04-27T07:48:43;14.70;54.50
22666;DHT22;11499;49.486;11.104;2023-04-27T07:51:09;15.00;54.50
22666;DHT22;11499;49.486;11.104;2023-04-27T07:53:34;15.20;53.40
22666;DHT22;11499;49.486;11.104;2023-04-27T07:56:00;15.50;52.10
22666;DHT22;11499;49.486;11.104;2023-04-27T07:58:26;16.20;52.30
22666;DHT22;11499;49.486;11.104;2023-04-27T08:00:51;16.30;51.10
22666;DHT22;11499;49.486;11.104;2023-04-27T08:03:17;16.40;50.60
22666;DHT22;11499;49.486;11.104;2023-04-27T08:08:24;16.10;49.30
22666;DHT22;11499;49.486;11.104;2023-04-27T08:10:49;15.90;49.20
22666;DHT22;11499;49.486;11.104;2023-04-27T08:13:15;16.00;48.40
22666;DHT22;11499;49.486;11.104;2023-04-27T08:15:40;16.30;48.60
22666;DHT22;11499;49.486;11.104;2023-04-27T08:18:06;16.50;48.70
22666;DHT22;11499;49.486;11.104;2023-04-27T08:20:31;17.00;46.90
22666;DHT22;11499;49.486;11.104;2023-04-27T08:22:57;16.70;46.90
22666;DHT22;11499;49.486;11.104;2023-04-27T08:25:22;17.00;46.70
22666;DHT22;11499;49.486;11.104;2023-04-27T08:27:48;17.00;46.60
22666;DHT22;11499;49.486;11.104;2023-04-27T08:30:14;17.00;45.90
22666;DHT22;11499;49.486;11.104;2023-04-27T08:34:40;16.70;44.20
22666;DHT22;11499;49.486;11.104;2023-04-27T08:37:07;16.10;45.60
22666;DHT22;11499;49.486;11.104;2023-04-27T08:39:33;16.20;45.60
22666;DHT22;11499;49.486;11.104;2023-04-27T08:41:58;15.90;45.80
22666;DHT22;11499;49.486;11.104;2023-04-27T08:44:24;15.40;46.30
22666;DHT22;11499;49.486;11.104;2023-04-27T08:46:50;15.20;46.70
22666;DHT22;11499;49.486;11.104;2023-04-27T08:49:15;14.80;47.20
22666;DHT22;11499;49.486;11.104;2023-04-27T08:51:41;14.80;47.30
22666;DHT22;11499;49.486;11.104;2023-04-27T08:54:07;14.80;47.30
22666;DHT22;11499;49.486;11.104;2023-04-27T08:56:33;14.80;46.80
22666;DHT22;11499;49.486;11.104;2023-04-27T09:01:46;14.70;47.50
22666;DHT22;11499;49.486;11.104;2023-04-27T09:04:13;14.60;47.00
22666;DHT22;11499;49.486;11.104;2023-04-27T09:06:38;14.70;46.50
22666;DHT22;11499;49.486;11.104;2023-04-27T09:09:04;14.90;45.60
22666;DHT22;11499;49.486;11.104;2023-04-27T09:11:36;14.70;46.20
22666;DHT22;11499;49.486;11.104;2023-04-27T09:14:24;14.80;45.60
22666;DHT22;11499;49.486;11.104;2023-04-27T09:16:56;14.50;45.90
22666;DHT22;11499;49.486;11.104;2023-04-27T09:19:25;14.10;46.70
22666;DHT22;11499;49.486;11.104;2023-04-27T09:22:02;14.20;46.90
22666;DHT22;11499;49.486;11.104;2023-04-27T09:24:28;14.50;46.40
22666;DHT22;11499;49.486;11.104;2023-04-27T09:29:04;14.70;46.00
22666;DHT22;11499;49.486;11.104;2023-04-27T09:31:34;14.70;46.00
22666;DHT22;11499;49.486;11.104;2023-04-27T09:34:00;14.30;45.80
22666;DHT22;11499;49.486;11.104;2023-04-27T09:36:26;14.10;45.60
22666;DHT22;11499;49.486;11.104;2023-04-27T09:38:52;13.90;45.80
22666;DHT22;11499;49.486;11.104;2023-04-27T09:41:18;14.00;45.80
22666;DHT22;11499;49.486;11.104;2023-04-27T09:43:44;14.00;46.10
22666;DHT22;11499;49.486;11.104;2023-04-27T09:46:14;14.00;46.00
22666;DHT22;11499;49.486;11.104;2023-04-27T09:48:40;13.90;45.70
22666;DHT22;11499;49.486;11.104;2023-04-27T09:51:06;13.90;46.20
22666;DHT22;11499;49.486;11.104;2023-04-27T09:56:08;14.40;46.30
22666;DHT22;11499;49.486;11.104;2023-04-27T10:01:56;15.30;44.50
22666;DHT22;11499;49.486;11.104;2023-04-27T10:04:44;14.90;45.40
22666;DHT22;11499;49.486;11.104;2023-04-27T10:07:16;14.30;46.00
22666;DHT22;11499;49.486;11.104;2023-04-27T10:09:47;14.70;45.90
22666;DHT22;11499;49.486;11.104;2023-04-27T10:14:53;14.80;45.50
22666;DHT22;11499;49.486;11.104;2023-04-27T10:17:30;15.10;45.10
22666;DHT22;11499;49.486;11.104;2023-04-27T10:22:48;16.00;44.90
22666;DHT22;11499;49.486;11.104;2023-04-27T10:25:25;16.60;43.20
22666;DHT22;11499;49.486;11.104;2023-04-27T10:27:59;16.30;43.40
22666;DHT22;11499;49.486;11.104;2023-04-27T10:30:31;16.30;43.10
22666;DHT22;11499;49.486;11.104;2023-04-27T10:32:58;16.10;43.50
22666;DHT22;11499;49.486;11.104;2023-04-27T10:35:35;16.60;42.60
22666;DHT22;11499;49.486;11.104;2023-04-27T10:38:25;16.70;43.20
22666;DHT22;11499;49.486;11.104;2023-04-27T10:40:55;16.40;43.10
22666;DHT22;11499;49.486;11.104;2023-04-27T10:43:25;15.90;42.90
22666;DHT22;11499;49.486;11.104;2023-04-27T10:45:52;16.20;42.90
22666;DHT22;11499;49.486;11.104;2023-04-27T10:50:53;16.10;42.90
22666;DHT22;11499;49.486;11.104;2023-04-27T10:53:21;16.10;42.30
22666;DHT22;11499;49.486;11.104;2023-04-27T10:55:47;16.10;42.10
22666;DHT22;11499;49.486;11.104;2023-04-27T10:58:22;16.00;42.50
22666;DHT22;11499;49.486;11.104;2023-04-27T11:00:47;16.00;42.60
22666;DHT22;11499;49.486;11.104;2023-04-27T11:03:22;16.10;43.50
22666;DHT22;11499;49.486;11.104;2023-04-27T11:05:50;15.80;43.30
22666;DHT22;11499;49.486;11.104;2023-04-27T11:08:22;15.00;43.70
22666;DHT22;11499;49.486;11.104;2023-04-27T11:10:49;15.10;44.10
22666;DHT22;11499;49.486;11.104;2023-04-27T11:13:21;15.20;43.70
22666;DHT22;11499;49.486;11.104;2023-04-27T11:21:17;15.60;43.40
22666;DHT22;11499;49.486;11.104;2023-04-27T11:23:44;14.70;43.60
22666;DHT22;11499;49.486;11.104;2023-04-27T11:28:36;15.60;42.80
22666;DHT22;11499;49.486;11.104;2023-04-27T11:31:01;15.00;43.20
22666;DHT22;11499;49.486;11.104;2023-04-27T11:33:29;15.10;43.50
22666;DHT22;11499;49.486;11.104;2023-04-27T11:35:55;15.50;43.60
22666;DHT22;11499;49.486;11.104;2023-04-27T11:38:21;15.70;43.90
22666;DHT22;11499;49.486;11.104;2023-04-27T11:40:58;15.60;43.80
22666;DHT22;11499;49.486;11.104;2023-04-27T11:43:25;16.00;44.00
22666;DHT22;11499;49.486;11.104;2023-04-27T11:47:45;16.20;42.00
22666;DHT22;11499;49.486;11.104;2023-04-27T11:50:11;16.60;42.20
22666;DHT22;11499;49.486;11.104;2023-04-27T11:52:38;16.40;42.20
22666;DHT22;11499;49.486;11.104;2023-04-27T11:55:05;17.30;42.40
22666;DHT22;11499;49.486;11.104;2023-04-27T11:57:34;17.80;42.50
22666;DHT22;11499;49.486;11.104;2023-04-27T12:00:03;18.40;42.00
22666;DHT22;11499;49.486;11.104;2023-04-27T12:02:35;18.90;40.70
22666;DHT22;11499;49.486;11.104;2023-04-27T12:05:02;18.50;40.50
22666;DHT22;11499;49.486;11.104;2023-04-27T12:07:28;18.50;40.30
22666;DHT22;11499;49.486;11.104;2023-04-27T12:09:53;17.20;41.60
22666;DHT22;11499;49.486;11.104;2023-04-27T12:12:19;17.00;41.70
22666;DHT22;11499;49.486;11.104;2023-04-27T12:18:04;16.80;43.80
22666;DHT22;11499;49.486;11.104;2023-04-27T12:20:30;17.50;42.80
22666;DHT22;11499;49.486;11.104;2023-04-27T12:22:56;18.00;41.70
22666;DHT22;11499;49.486;11.104;2023-04-27T12:25:22;17.60;41.80
22666;DHT22;11499;49.486;11.104;2023-04-27T12:27:48;17.50;42.50
22666;DHT22;11499;49.486;11.104;2023-04-27T12:30:14;17.10;42.90
22666;DHT22;11499;49.486;11.104;2023-04-27T12:32:40;16.30;43.60
22666;DHT22;11499;49.486;11.104;2023-04-27T12:35:06;16.90;44.70
22666;DHT22;11499;49.486;11.104;2023-04-27T12:37:32;16.70;43.30
22666;DHT22;11499;49.486;11.104;2023-04-27T12:39:58;16.50;43.40
22666;DHT22;11499;49.486;11.104;2023-04-27T12:42:23;16.60;43.50
22666;DHT22;11499;49.486;11.104;2023-04-27T12:44:49;16.10;44.30
22666;DHT22;11499;49.486;11.104;2023-04-27T12:49:58;16.20;44.20
22666;DHT22;11499;49.486;11.104;2023-04-27T12:52:24;16.10;44.10
22666;DHT22;11499;49.486;11.104;2023-04-27T12:54:49;16.60;44.20
22666;DHT22;11499;49.486;11.104;2023-04-27T12:57:22;17.30;43.50
22666;DHT22;11499;49.486;11.104;2023-04-27T12:59:47;17.20;43.00
22666;DHT22;11499;49.486;11.104;2023-04-27T13:02:13;16.80;43.30
22666;DHT22;11499;49.486;11.104;2023-04-27T13:04:38;16.90;43.60
22666;DHT22;11499;49.486;11.104;2023-04-27T13:07:04;16.90;43.40
22666;DHT22;11499;49.486;11.104;2023-04-27T13:09:29;16.80;43.50
22666;DHT22;11499;49.486;11.104;2023-04-27T13:11:55;17.20;43.50
22666;DHT22;11499;49.486;11.104;2023-04-27T13:17:06;17.30;42.80
22666;DHT22;11499;49.486;11.104;2023-04-27T13:19:32;17.90;42.80
22666;DHT22;11499;49.486;11.104;2023-04-27T13:21:57;17.70;43.10
22666;DHT22;11499;49.486;11.104;2023-04-27T13:24:23;17.50;43.70
22666;DHT22;11499;49.486;11.104;2023-04-27T13:26:49;17.80;44.90
22666;DHT22;11499;49.486;11.104;2023-04-27T13:29:15;18.60;44.00
22666;DHT22;11499;49.486;11.104;2023-04-27T13:31:41;19.10;42.70
22666;DHT22;11499;49.486;11.104;2023-04-27T13:34:07;19.50;41.40
22666;DHT22;11499;49.486;11.104;2023-04-27T13:36:32;18.60;41.60
22666;DHT22;11499;49.486;11.104;2023-04-27T13:38:57;18.50;42.30
22666;DHT22;11499;49.486;11.104;2023-04-27T13:44:07;18.70;42.10
22666;DHT22;11499;49.486;11.104;2023-04-27T13:46:32;19.40;42.40
22666;DHT22;11499;49.486;11.104;2023-04-27T13:48:58;19.20;42.00
22666;DHT22;11499;49.486;11.104;2023-04-27T13:51:23;19.70;42.30
22666;DHT22;11499;49.486;11.104;2023-04-27T13:53:49;19.80;41.10
22666;DHT22;11499;49.486;11.104;2023-04-27T13:56:15;19.40;42.00
22666;DHT22;11499;49.486;11.104;2023-04-27T13:58:40;19.90;41.00
22666;DHT22;11499;49.486;11.104;2023-04-27T14:01:06;19.90;40.70
22666;DHT22;11499;49.486;11.104;2023-04-27T14:03:33;19.40;40.50
22666;DHT22;11499;49.486;11.104;2023-04-27T14:05:59;20.00;41.00
22666;DHT22;11499;49.486;11.104;2023-04-27T14:10:36;19.00;41.00
22666;DHT22;11499;49.486;11.104;2023-04-27T14:13:02;19.30;41.60
22666;DHT22;11499;49.486;11.104;2023-04-27T14:15:28;19.80;40.60
22666;DHT22;11499;49.486;11.104;2023-04-27T14:17:53;20.10;40.10
22666;DHT22;11499;49.486;11.104;2023-04-27T14:20:19;20.10;39.80
22666;DHT22;11499;49.486;11.104;2023-04-27T14:22:46;20.00;41.10
22666;DHT22;11499;49.486;11.104;2023-04-27T14:25:12;19.70;39.90
22666;DHT22;11499;49.486;11.104;2023-04-27T14:27:38;18.80;40.90
22666;DHT22;11499;49.486;11.104;2023-04-27T14:30:04;18.30;41.70
22666;DHT22;11499;49.486;11.104;2023-04-27T14:32:30;17.80;42.00
22666;DHT22;11499;49.486;11.104;2023-04-27T14:37:27;17.80;42.10
22666;DHT22;11499;49.486;11.104;2023-04-27T14:39:53;17.70;42.40
22666;DHT22;11499;49.486;11.104;2023-04-27T14:42:18;17.60;41.90
22666;DHT22;11499;49.486;11.104;2023-04-27T14:44:44;17.60;42.40
22666;DHT22;11499;49.486;11.104;2023-04-27T14:47:10;18.00;41.70
22666;DHT22;11499;49.486;11.104;2023-04-27T14:49:35;18.00;41.70
22666;DHT22;11499;49.486;11.104;2023-04-27T14:52:01;17.20;42.80
22666;DHT22;11499;49.486;11.104;2023-04-27T14:54:29;17.10;42.80
22666;DHT22;11499;49.486;11.104;2023-04-27T14:56:54;17.30;43.30
22666;DHT22;11499;49.486;11.104;2023-04-27T14:59:20;17.60;42.20
22666;DHT22;11499;49.486;11.104;2023-04-27T15:04:28;17.80;42.50
22666;DHT22;11499;49.486;11.104;2023-04-27T15:06:53;18.00;42.10
22666;DHT22;11499;49.486;11.104;2023-04-27T15:09:19;18.00;42.80
22666;DHT22;11499;49.486;11.104;2023-04-27T15:11:45;18.10;41.70
22666;DHT22;11499;49.486;11.104;2023-04-27T15:14:11;17.30;42.30
22666;DHT22;11499;49.486;11.104;2023-04-27T15:16:36;17.70;43.10
22666;DHT22;11499;49.486;11.104;2023-04-27T15:19:02;18.50;42.50
22666;DHT22;11499;49.486;11.104;2023-04-27T15:21:29;19.30;42.00
22666;DHT22;11499;49.486;11.104;2023-04-27T15:23:54;19.60;41.00
22666;DHT22;11499;49.486;11.104;2023-04-27T15:26:20;19.60;40.30
22666;DHT22;11499;49.486;11.104;2023-04-27T15:28:45;19.70;40.30
22666;DHT22;11499;49.486;11.104;2023-04-27T15:33:46;19.50;40.30
22666;DHT22;11499;49.486;11.104;2023-04-27T15:36:12;18.30;42.10
22666;DHT22;11499;49.486;11.104;2023-04-27T15:38:37;18.00;41.90
22666;DHT22;11499;49.486;11.104;2023-04-27T15:41:03;18.10;42.30
22666;DHT22;11499;49.486;11.104;2023-04-27T15:43:28;18.40;41.90
22666;DHT22;11499;49.486;11.104;2023-04-27T15:45:54;17.60;42.60
22666;DHT22;11499;49.486;11.104;2023-04-27T15:48:20;17.70;42.70
22666;DHT22;11499;49.486;11.104;2023-04-27T15:50:45;18.20;42.10
22666;DHT22;11499;49.486;11.104;2023-04-27T15:53:11;18.40;41.10
22666;DHT22;11499;49.486;11.104;2023-04-27T15:55:37;18.40;40.90
22666;DHT22;11499;49.486;11.104;2023-04-27T16:01:24;18.60;41.50
22666;DHT22;11499;49.486;11.104;2023-04-27T16:03:50;18.10;41.00
22666;DHT22;11499;49.486;11.104;2023-04-27T16:06:15;18.50;41.10
22666;DHT22;11499;49.486;11.104;2023-04-27T16:08:41;18.60;40.40
22666;DHT22;11499;49.486;11.104;2023-04-27T16:11:06;18.80;40.50
22666;DHT22;11499;49.486;11.104;2023-04-27T16:13:32;18.80;41.40
22666;DHT22;11499;49.486;11.104;2023-04-27T16:15:58;18.50;41.30
22666;DHT22;11499;49.486;11.104;2023-04-27T16:18:23;18.30;41.80
22666;DHT22;11499;49.486;11.104;2023-04-27T16:20:49;18.00;41.50
22666;DHT22;11499;49.486;11.104;2023-04-27T16:23:14;18.40;41.30
22666;DHT22;11499;49.486;11.104;2023-04-27T16:25:41;18.60;41.60
22666;DHT22;11499;49.486;11.104;2023-04-27T16:28:07;18.90;40.70
22666;DHT22;11499;49.486;11.104;2023-04-27T16:33:16;18.70;40.80
22666;DHT22;11499;49.486;11.104;2023-04-27T16:35:43;18.50;41.80
22666;DHT22;11499;49.486;11.104;2023-04-27T16:38:09;18.50;41.80
22666;DHT22;11499;49.486;11.104;2023-04-27T16:40:34;18.80;42.00
22666;DHT22;11499;49.486;11.104;2023-04-27T16:43:00;18.60;42.20
22666;DHT22;11499;49.486;11.104;2023-04-27T16:45:25;18.60;42.30
22666;DHT22;11499;49.486;11.104;2023-04-27T16:47:51;18.40;41.80
22666;DHT22;11499;49.486;11.104;2023-04-27T16:50:16;18.00;41.50
22666;DHT22;11499;49.486;11.104;2023-04-27T16:52:42;17.80;41.80
22666;DHT22;11499;49.486;11.104;2023-04-27T16:55:07;17.50;42.60
22666;DHT22;11499;49.486;11.104;2023-04-27T16:57:33;17.10;42.80